WJA210 CYVR-CYEG
Flight info
| Callsign | WJA210 |
|---|---|
| Flight time | N/A |
| Altitude | 37000 |
| Route | VIDRI Q949 ELLKS ELLKS3 |
| Aircraft | B738/M-SDE2E3FGHIRWXY/LB1 |
Departure
| Time | 2026-05-08 05:10 |
|---|---|
| Airport | Vancouver International Airport (CYVR) |
Arrival
| Time | N/A |
|---|---|
| Airport | Edmonton International Airport (CYEG) |
| Time | Latitude | Longitude | Altitude | Speed | Heading |
|---|---|---|---|---|---|
| 2026-05-08 04:51 | 49.19178 | -123.18416 | 22 ft | 0 kts | 19° |
| 2026-05-08 05:01 | 49.19177 | -123.18417 | 22 ft | 2 kts | 19° |
| 2026-05-08 05:01 | 49.19153 | -123.18429 | 23 ft | 4 kts | 18° |
| 2026-05-08 05:02 | 49.19132 | -123.18439 | 22 ft | 4 kts | 5° |
| 2026-05-08 05:02 | 49.19109 | -123.18432 | 23 ft | 4 kts | 307° |
| 2026-05-08 05:02 | 49.19103 | -123.18411 | 23 ft | 4 kts | 265° |
| 2026-05-08 05:02 | 49.19110 | -123.18373 | 23 ft | 4 kts | 250° |
| 2026-05-08 05:03 | 49.19112 | -123.18364 | 25 ft | 1 kts | 250° |
| 2026-05-08 05:05 | 49.19106 | -123.18391 | 25 ft | 8 kts | 255° |
| 2026-05-08 05:05 | 49.19130 | -123.18499 | 22 ft | 15 kts | 328° |
| 2026-05-08 05:05 | 49.19156 | -123.18580 | 22 ft | 9 kts | 236° |
| 2026-05-08 05:06 | 49.19141 | -123.18668 | 22 ft | 10 kts | 297° |
| 2026-05-08 05:06 | 49.19216 | -123.18763 | 23 ft | 20 kts | 322° |
| 2026-05-08 05:06 | 49.19341 | -123.18905 | 24 ft | 16 kts | 321° |
| 2026-05-08 05:06 | 49.19350 | -123.19062 | 22 ft | 16 kts | 258° |
| 2026-05-08 05:07 | 49.19327 | -123.19267 | 21 ft | 23 kts | 261° |
| 2026-05-08 05:07 | 49.19293 | -123.19541 | 23 ft | 29 kts | 259° |
| 2026-05-08 05:07 | 49.19255 | -123.19843 | 22 ft | 28 kts | 260° |
| 2026-05-08 05:07 | 49.19220 | -123.20128 | 24 ft | 26 kts | 259° |
| 2026-05-08 05:08 | 49.19190 | -123.20374 | 22 ft | 0 kts | 259° |
| 2026-05-08 05:08 | 49.19183 | -123.20389 | 22 ft | 9 kts | 227° |
| 2026-05-08 05:08 | 49.19128 | -123.20422 | 24 ft | 0 kts | 193° |
| 2026-05-08 05:09 | 49.19090 | -123.20434 | 25 ft | 14 kts | 190° |
| 2026-05-08 05:09 | 49.18978 | -123.20424 | 24 ft | 17 kts | 137° |
| 2026-05-08 05:09 | 49.18942 | -123.20212 | 23 ft | 43 kts | 99° |
| 2026-05-08 05:09 | 49.18839 | -123.19318 | 23 ft | 126 kts | 101° |
| 2026-05-08 05:10 | 49.18676 | -123.17707 | 365 ft | 162 kts | 99° |
| 2026-05-08 05:10 | 49.18370 | -123.14772 | 2190 ft | 152 kts | 103° |
| 2026-05-08 05:10 | 49.18163 | -123.13042 | 2523 ft | 181 kts | 102° |
| 2026-05-08 05:11 | 49.17937 | -123.10979 | 2830 ft | 210 kts | 99° |
| 2026-05-08 05:11 | 49.17701 | -123.08648 | 3109 ft | 230 kts | 99° |
| 2026-05-08 05:11 | 49.17462 | -123.06173 | 3661 ft | 237 kts | 99° |
| 2026-05-08 05:11 | 49.17212 | -123.03583 | 4049 ft | 256 kts | 98° |
| 2026-05-08 05:12 | 49.16952 | -123.00836 | 4711 ft | 265 kts | 98° |
| 2026-05-08 05:12 | 49.16863 | -122.98034 | 5615 ft | 268 kts | 78° |
| 2026-05-08 05:12 | 49.17720 | -122.95554 | 6415 ft | 275 kts | 45° |
| 2026-05-08 05:12 | 49.19170 | -122.93612 | 7217 ft | 280 kts | 41° |
| 2026-05-08 05:13 | 49.20664 | -122.91662 | 8013 ft | 285 kts | 41° |
| 2026-05-08 05:13 | 49.22182 | -122.89676 | 8851 ft | 289 kts | 41° |
| 2026-05-08 05:13 | 49.23719 | -122.87649 | 9664 ft | 294 kts | 41° |
| 2026-05-08 05:13 | 49.25279 | -122.85576 | 10379 ft | 302 kts | 41° |
| 2026-05-08 05:14 | 49.26923 | -122.83376 | 10603 ft | 327 kts | 42° |
| 2026-05-08 05:14 | 49.28679 | -122.81012 | 10955 ft | 344 kts | 42° |
| 2026-05-08 05:14 | 49.30496 | -122.78556 | 11614 ft | 351 kts | 42° |
| 2026-05-08 05:14 | 49.32332 | -122.76067 | 12386 ft | 354 kts | 42° |
| 2026-05-08 05:15 | 49.34187 | -122.73548 | 13139 ft | 358 kts | 41° |
| 2026-05-08 05:15 | 49.36059 | -122.70999 | 13875 ft | 362 kts | 41° |
| 2026-05-08 05:15 | 49.37958 | -122.68408 | 14515 ft | 367 kts | 41° |
| 2026-05-08 05:15 | 49.39876 | -122.65788 | 15157 ft | 371 kts | 41° |
| 2026-05-08 05:16 | 49.41815 | -122.63136 | 15789 ft | 376 kts | 41° |
| 2026-05-08 05:16 | 49.43780 | -122.60443 | 16411 ft | 381 kts | 41° |
| 2026-05-08 05:16 | 49.45743 | -122.57751 | 17019 ft | 386 kts | 42° |
| 2026-05-08 05:16 | 49.47756 | -122.54988 | 17643 ft | 390 kts | 42° |
| 2026-05-08 05:17 | 49.49791 | -122.52191 | 18283 ft | 394 kts | 42° |
| 2026-05-08 05:17 | 49.51846 | -122.49362 | 18860 ft | 398 kts | 41° |
| 2026-05-08 05:17 | 49.53903 | -122.46527 | 19398 ft | 402 kts | 41° |
| 2026-05-08 05:17 | 49.56001 | -122.43635 | 19955 ft | 405 kts | 41° |
| 2026-05-08 05:18 | 49.58104 | -122.40730 | 20501 ft | 409 kts | 41° |
| 2026-05-08 05:18 | 49.60230 | -122.37791 | 21012 ft | 413 kts | 41° |
| 2026-05-08 05:18 | 49.62377 | -122.34818 | 21543 ft | 416 kts | 40° |
| 2026-05-08 05:18 | 49.64540 | -122.31821 | 22068 ft | 420 kts | 40° |
| 2026-05-08 05:19 | 49.66720 | -122.28795 | 22590 ft | 423 kts | 40° |
| 2026-05-08 05:19 | 49.68920 | -122.25740 | 23079 ft | 427 kts | 40° |
| 2026-05-08 05:19 | 49.71135 | -122.22658 | 23601 ft | 430 kts | 40° |
| 2026-05-08 05:19 | 49.73367 | -122.19546 | 24018 ft | 433 kts | 40° |
| 2026-05-08 05:20 | 49.75603 | -122.16425 | 24419 ft | 435 kts | 40° |
| 2026-05-08 05:20 | 49.77832 | -122.13313 | 24849 ft | 438 kts | 40° |
| 2026-05-08 05:20 | 49.80095 | -122.10148 | 25280 ft | 440 kts | 40° |
| 2026-05-08 05:20 | 49.82374 | -122.06956 | 25685 ft | 443 kts | 40° |
| 2026-05-08 05:21 | 49.84671 | -122.03737 | 26088 ft | 445 kts | 39° |
| 2026-05-08 05:21 | 49.86974 | -122.00502 | 26462 ft | 448 kts | 39° |
| 2026-05-08 05:21 | 49.89288 | -121.97247 | 26924 ft | 449 kts | 39° |
| 2026-05-08 05:21 | 49.91601 | -121.93990 | 27357 ft | 450 kts | 39° |
| 2026-05-08 05:22 | 49.93930 | -121.90706 | 27715 ft | 453 kts | 39° |
| 2026-05-08 05:22 | 49.96270 | -121.87403 | 28050 ft | 456 kts | 39° |
| 2026-05-08 05:22 | 49.98621 | -121.84079 | 28408 ft | 459 kts | 39° |
| 2026-05-08 05:22 | 50.00987 | -121.80728 | 28748 ft | 461 kts | 39° |
| 2026-05-08 05:23 | 50.03364 | -121.77359 | 29097 ft | 463 kts | 39° |
| 2026-05-08 05:23 | 50.05724 | -121.74008 | 29433 ft | 466 kts | 39° |
| 2026-05-08 05:23 | 50.08123 | -121.70597 | 29748 ft | 468 kts | 38° |
| 2026-05-08 05:23 | 50.10529 | -121.67166 | 30119 ft | 468 kts | 38° |
| 2026-05-08 05:24 | 50.12938 | -121.63731 | 30406 ft | 470 kts | 38° |
| 2026-05-08 05:24 | 50.15364 | -121.60269 | 30615 ft | 473 kts | 38° |
| 2026-05-08 05:24 | 50.17804 | -121.56789 | 30826 ft | 476 kts | 38° |
| 2026-05-08 05:24 | 50.20253 | -121.53281 | 31133 ft | 477 kts | 38° |
| 2026-05-08 05:25 | 50.22672 | -121.49739 | 31524 ft | 477 kts | 41° |
| 2026-05-08 05:25 | 50.24874 | -121.45840 | 31889 ft | 479 kts | 46° |
| 2026-05-08 05:25 | 50.26928 | -121.41814 | 32213 ft | 480 kts | 47° |
| 2026-05-08 05:25 | 50.28965 | -121.37693 | 32667 ft | 477 kts | 47° |
| 2026-05-08 05:26 | 50.30983 | -121.33582 | 33045 ft | 476 kts | 47° |
| 2026-05-08 05:26 | 50.33038 | -121.29417 | 33286 ft | 478 kts | 47° |
| 2026-05-08 05:26 | 50.35081 | -121.25307 | 33512 ft | 479 kts | 47° |
| 2026-05-08 05:26 | 50.37113 | -121.21242 | 33844 ft | 479 kts | 46° |
| 2026-05-08 05:27 | 50.39169 | -121.17140 | 34191 ft | 477 kts | 46° |
| 2026-05-08 05:27 | 50.41216 | -121.13060 | 34487 ft | 476 kts | 46° |
| 2026-05-08 05:27 | 50.43260 | -121.08989 | 34745 ft | 475 kts | 46° |
| 2026-05-08 05:27 | 50.45302 | -121.04913 | 35122 ft | 472 kts | 46° |
| 2026-05-08 05:28 | 50.47323 | -121.00874 | 35437 ft | 471 kts | 46° |
| 2026-05-08 05:28 | 50.49344 | -120.96828 | 35684 ft | 470 kts | 46° |
| 2026-05-08 05:28 | 50.51364 | -120.92779 | 35898 ft | 471 kts | 46° |
| 2026-05-08 05:28 | 50.53381 | -120.88729 | 36149 ft | 470 kts | 46° |
| 2026-05-08 05:29 | 50.55405 | -120.84657 | 36363 ft | 471 kts | 46° |
| 2026-05-08 05:29 | 50.57392 | -120.80652 | 36599 ft | 470 kts | 46° |
| 2026-05-08 05:29 | 50.59402 | -120.76593 | 36872 ft | 469 kts | 46° |
| 2026-05-08 05:30 | 50.63439 | -120.68429 | 36925 ft | 474 kts | 46° |
| 2026-05-08 05:30 | 50.67473 | -120.60237 | 36911 ft | 469 kts | 46° |
| 2026-05-08 05:31 | 50.71445 | -120.52140 | 36918 ft | 466 kts | 46° |
| 2026-05-08 05:31 | 50.75411 | -120.44041 | 36908 ft | 465 kts | 46° |
| 2026-05-08 05:32 | 50.79355 | -120.35963 | 36917 ft | 464 kts | 46° |
| 2026-05-08 05:32 | 50.83260 | -120.27938 | 36928 ft | 463 kts | 46° |
| 2026-05-08 05:33 | 50.87189 | -120.19841 | 36923 ft | 463 kts | 46° |
| 2026-05-08 05:33 | 50.91118 | -120.11716 | 36927 ft | 464 kts | 46° |
| 2026-05-08 05:34 | 50.95045 | -120.03570 | 36931 ft | 465 kts | 46° |
| 2026-05-08 05:34 | 50.98975 | -119.95391 | 36930 ft | 466 kts | 46° |
| 2026-05-08 05:35 | 51.02901 | -119.87196 | 36933 ft | 466 kts | 46° |
| 2026-05-08 05:35 | 51.06800 | -119.79030 | 36931 ft | 467 kts | 46° |
| 2026-05-08 05:36 | 51.10721 | -119.70793 | 36964 ft | 466 kts | 46° |
| 2026-05-08 05:36 | 51.14628 | -119.62557 | 36942 ft | 466 kts | 46° |
| 2026-05-08 05:37 | 51.18532 | -119.54304 | 36940 ft | 466 kts | 46° |
| 2026-05-08 05:37 | 51.22429 | -119.46038 | 36945 ft | 467 kts | 46° |
| 2026-05-08 05:38 | 51.26328 | -119.37744 | 36951 ft | 467 kts | 46° |
| 2026-05-08 05:38 | 51.30224 | -119.29429 | 36946 ft | 467 kts | 46° |
| 2026-05-08 05:39 | 51.34094 | -119.21142 | 36969 ft | 466 kts | 46° |
| 2026-05-08 05:39 | 51.37968 | -119.12815 | 36974 ft | 466 kts | 46° |
| 2026-05-08 05:40 | 51.41845 | -119.04460 | 36959 ft | 467 kts | 46° |
| 2026-05-08 05:40 | 51.45716 | -118.96091 | 36982 ft | 467 kts | 46° |
| 2026-05-08 05:41 | 51.49572 | -118.87728 | 36975 ft | 465 kts | 46° |
| 2026-05-08 05:41 | 51.53406 | -118.79377 | 36963 ft | 464 kts | 46° |
| 2026-05-08 05:42 | 51.57206 | -118.71083 | 36984 ft | 463 kts | 46° |
| 2026-05-08 05:42 | 51.61021 | -118.62729 | 36997 ft | 463 kts | 46° |
| 2026-05-08 05:43 | 51.64826 | -118.54367 | 36984 ft | 462 kts | 46° |
| 2026-05-08 05:43 | 51.68613 | -118.46018 | 36982 ft | 461 kts | 46° |
| 2026-05-08 05:44 | 51.72385 | -118.37675 | 36983 ft | 460 kts | 46° |
| 2026-05-08 05:44 | 51.76141 | -118.29344 | 36973 ft | 456 kts | 46° |
| 2026-05-08 05:45 | 51.79841 | -118.21106 | 36997 ft | 457 kts | 46° |
| 2026-05-08 05:45 | 51.83582 | -118.12752 | 36968 ft | 460 kts | 46° |
| 2026-05-08 05:46 | 51.87333 | -118.04352 | 36963 ft | 461 kts | 46° |
| 2026-05-08 05:46 | 51.91084 | -117.95926 | 36985 ft | 463 kts | 46° |
| 2026-05-08 05:47 | 51.94848 | -117.87431 | 37014 ft | 465 kts | 46° |
| 2026-05-08 05:47 | 51.98622 | -117.78892 | 37041 ft | 466 kts | 46° |
| 2026-05-08 05:48 | 52.01304 | -117.72806 | 36986 ft | 468 kts | 46° |
| 2026-05-08 05:48 | 52.05069 | -117.64249 | 37047 ft | 461 kts | 46° |
| 2026-05-08 05:49 | 52.08765 | -117.55789 | 37005 ft | 457 kts | 46° |
| 2026-05-08 05:49 | 52.12429 | -117.47373 | 37013 ft | 457 kts | 46° |
| 2026-05-08 05:50 | 52.16105 | -117.38915 | 37038 ft | 459 kts | 46° |
| 2026-05-08 05:50 | 52.19181 | -117.31820 | 37027 ft | 461 kts | 46° |
| 2026-05-08 05:51 | 52.22879 | -117.23243 | 37025 ft | 463 kts | 46° |
| 2026-05-08 05:51 | 52.26575 | -117.14647 | 37068 ft | 462 kts | 45° |
| 2026-05-08 05:52 | 52.30254 | -117.06076 | 37002 ft | 455 kts | 45° |
| 2026-05-08 05:52 | 52.33860 | -116.97646 | 37028 ft | 456 kts | 45° |
| 2026-05-08 05:53 | 52.37495 | -116.89124 | 37023 ft | 457 kts | 46° |
| 2026-05-08 05:53 | 52.41142 | -116.80553 | 36566 ft | 463 kts | 46° |
| 2026-05-08 05:53 | 52.42966 | -116.76237 | 36287 ft | 458 kts | 45° |
| 2026-05-08 05:54 | 52.44768 | -116.71957 | 35854 ft | 454 kts | 45° |
| 2026-05-08 05:54 | 52.46538 | -116.67754 | 35433 ft | 452 kts | 45° |
| 2026-05-08 05:54 | 52.48315 | -116.63539 | 35049 ft | 448 kts | 45° |
| 2026-05-08 05:54 | 52.50080 | -116.59343 | 34643 ft | 445 kts | 45° |
| 2026-05-08 05:55 | 52.51835 | -116.55165 | 34255 ft | 442 kts | 45° |
| 2026-05-08 05:55 | 52.53572 | -116.51023 | 33852 ft | 439 kts | 45° |
| 2026-05-08 05:55 | 52.55296 | -116.46903 | 33430 ft | 436 kts | 45° |
| 2026-05-08 05:55 | 52.57007 | -116.42814 | 33029 ft | 433 kts | 45° |
| 2026-05-08 05:56 | 52.58705 | -116.38751 | 32676 ft | 429 kts | 45° |
| 2026-05-08 05:56 | 52.59822 | -116.36070 | 32435 ft | 427 kts | 45° |
| 2026-05-08 05:56 | 52.61065 | -116.33087 | 32143 ft | 425 kts | 45° |
| 2026-05-08 05:56 | 52.62733 | -116.29079 | 31751 ft | 423 kts | 45° |
| 2026-05-08 05:57 | 52.64387 | -116.25097 | 31388 ft | 420 kts | 45° |
| 2026-05-08 05:57 | 52.66025 | -116.21146 | 31024 ft | 417 kts | 45° |
| 2026-05-08 05:57 | 52.67659 | -116.17197 | 30713 ft | 414 kts | 45° |
| 2026-05-08 05:57 | 52.69269 | -116.13297 | 30357 ft | 411 kts | 46° |
| 2026-05-08 05:58 | 52.70873 | -116.09412 | 29997 ft | 409 kts | 46° |
| 2026-05-08 05:58 | 52.72466 | -116.05549 | 29573 ft | 406 kts | 46° |
| 2026-05-08 05:58 | 52.74049 | -116.01706 | 29125 ft | 404 kts | 46° |
| 2026-05-08 05:58 | 52.75628 | -115.97866 | 28693 ft | 401 kts | 46° |
| 2026-05-08 05:59 | 52.77161 | -115.94127 | 28365 ft | 394 kts | 46° |
| 2026-05-08 05:59 | 52.78677 | -115.90416 | 27797 ft | 389 kts | 46° |
| 2026-05-08 05:59 | 52.80193 | -115.86715 | 27115 ft | 387 kts | 46° |
| 2026-05-08 05:59 | 52.81698 | -115.83036 | 26495 ft | 384 kts | 46° |
| 2026-05-08 06:00 | 52.83185 | -115.79393 | 25957 ft | 380 kts | 46° |
| 2026-05-08 06:00 | 52.84655 | -115.75783 | 25420 ft | 375 kts | 47° |
| 2026-05-08 06:00 | 52.86104 | -115.72223 | 24893 ft | 372 kts | 47° |
| 2026-05-08 06:00 | 52.87540 | -115.68691 | 24363 ft | 368 kts | 47° |
| 2026-05-08 06:01 | 52.88962 | -115.65188 | 23809 ft | 365 kts | 47° |
| 2026-05-08 06:01 | 52.90369 | -115.61718 | 23260 ft | 361 kts | 47° |
| 2026-05-08 06:01 | 52.91762 | -115.58278 | 22636 ft | 358 kts | 48° |
| 2026-05-08 06:01 | 52.93143 | -115.54863 | 22036 ft | 355 kts | 49° |
| 2026-05-08 06:02 | 52.94513 | -115.51471 | 21427 ft | 352 kts | 49° |
| 2026-05-08 06:02 | 52.95870 | -115.48106 | 20851 ft | 349 kts | 50° |
| 2026-05-08 06:02 | 52.97216 | -115.44766 | 20316 ft | 347 kts | 50° |
| 2026-05-08 06:02 | 52.98539 | -115.41472 | 19923 ft | 339 kts | 50° |
| 2026-05-08 06:03 | 52.99829 | -115.38255 | 19592 ft | 331 kts | 51° |
| 2026-05-08 06:03 | 53.01093 | -115.35098 | 19226 ft | 324 kts | 51° |
| 2026-05-08 06:03 | 53.02326 | -115.32018 | 18916 ft | 317 kts | 51° |
| 2026-05-08 06:03 | 53.03542 | -115.28980 | 18612 ft | 314 kts | 51° |
| 2026-05-08 06:04 | 53.04732 | -115.26006 | 18328 ft | 313 kts | 52° |
| 2026-05-08 06:04 | 53.05955 | -115.22954 | 18016 ft | 324 kts | 52° |
| 2026-05-08 06:04 | 53.07231 | -115.19767 | 17674 ft | 336 kts | 52° |
| 2026-05-08 06:04 | 53.08517 | -115.16539 | 17298 ft | 332 kts | 53° |
| 2026-05-08 06:05 | 53.09773 | -115.13372 | 16946 ft | 324 kts | 53° |
| 2026-05-08 06:05 | 53.10996 | -115.10283 | 16615 ft | 315 kts | 53° |